createdAt,value
2018-12-06T00:04:11.378Z,98149.59
2018-12-06T00:09:23.799Z,98141.01
2018-12-06T00:14:35.253Z,98139.86
2018-12-06T00:19:48.803Z,98139.16
2018-12-06T00:25:00.898Z,98152.72
2018-12-06T00:27:31.354Z,98150.50
2018-12-06T00:32:59.833Z,98143.78
2018-12-06T00:38:12.917Z,98146.98
2018-12-06T00:43:27.345Z,98162.42
2018-12-06T00:48:42.667Z,98158.40
2018-12-06T00:53:53.934Z,98162.92
2018-12-06T00:59:06.633Z,98175.90
2018-12-06T01:04:18.923Z,98181.31
2018-12-06T01:09:33.325Z,98179.60
2018-12-06T01:14:45.879Z,98199.59
2018-12-06T01:19:59.483Z,98217.27
2018-12-06T01:25:17.657Z,98200.40
2018-12-06T01:30:29.375Z,98189.61
2018-12-06T01:35:40.678Z,98222.57
2018-12-06T01:40:52.377Z,98235.11
2018-12-06T01:46:05.747Z,98220.13
2018-12-06T01:51:16.930Z,98203.80
2018-12-06T01:56:30.024Z,98185.63
2018-12-06T02:01:40.744Z,98181.66
2018-12-06T02:06:54.039Z,98160.63
2018-12-06T02:12:04.372Z,98149.91
2018-12-06T02:17:17.823Z,98143.59
2018-12-06T02:22:29.550Z,98121.09
2018-12-06T02:27:42.736Z,98109.34
2018-12-06T02:32:53.781Z,98096.56
2018-12-06T02:38:06.690Z,98068.78
2018-12-06T02:43:18.048Z,98046.30
2018-12-06T02:48:30.747Z,98056.50
2018-12-06T02:53:42.778Z,98028.38
2018-12-06T02:58:55.668Z,98024.77
2018-12-06T03:02:58.726Z,98023.14
2018-12-06T03:08:12.658Z,98014.55
2018-12-06T03:13:24.640Z,98012.93
2018-12-06T03:18:37.710Z,98004.77
2018-12-06T03:23:48.330Z,97989.67
2018-12-06T03:29:02.588Z,97982.55
2018-12-06T03:34:15.243Z,97962.50
2018-12-06T03:39:28.032Z,97963.89
2018-12-06T03:44:40.774Z,97953.77
2018-12-06T03:49:54.054Z,97942.86
2018-12-06T03:55:06.065Z,97929.77
2018-12-06T04:00:18.599Z,97914.85
2018-12-06T04:05:30.242Z,97906.02
2018-12-06T04:10:41.680Z,97902.05
2018-12-06T04:15:55.052Z,97888.02
2018-12-06T04:21:07.150Z,97873.77
2018-12-06T04:26:20.657Z,97870.00
2018-12-06T04:31:31.835Z,97874.19
2018-12-06T04:34:01.983Z,97872.36
2018-12-06T04:39:14.822Z,97872.64
2018-12-06T04:44:26.373Z,97863.98
2018-12-06T04:49:39.412Z,97874.92
2018-12-06T04:54:50.873Z,97875.77
2018-12-06T05:00:03.704Z,97873.36
2018-12-06T05:05:16.558Z,97881.25
2018-12-06T05:10:29.676Z,97883.81
2018-12-06T05:15:41.227Z,97889.00
2018-12-06T05:20:52.767Z,97895.05
2018-12-06T05:26:05.809Z,97895.22
2018-12-06T05:31:15.773Z,97895.13
2018-12-06T05:36:28.914Z,97892.03
2018-12-06T05:41:40.811Z,97898.28
2018-12-06T05:46:53.642Z,97905.50
2018-12-06T05:52:05.685Z,97912.98
2018-12-06T05:57:18.795Z,97913.52
2018-12-06T06:02:29.798Z,97913.87
2018-12-06T06:07:42.665Z,97900.32
2018-12-06T06:12:54.394Z,97909.72
2018-12-06T06:18:07.779Z,97904.57
2018-12-06T06:23:20.475Z,97906.05
2018-12-06T06:28:33.680Z,97919.89
2018-12-06T06:33:45.254Z,97915.10
2018-12-06T06:38:57.780Z,97920.14
2018-12-06T06:44:08.381Z,97910.28
2018-12-06T06:49:21.613Z,97918.89
2018-12-06T06:54:32.964Z,97913.22
2018-12-06T06:59:46.913Z,97932.77
2018-12-06T07:04:59.055Z,97934.07
2018-12-06T07:10:13.681Z,97927.39
2018-12-06T07:15:26.957Z,97926.15
2018-12-06T07:20:39.903Z,97939.20
2018-12-06T07:25:52.776Z,97939.95
2018-12-06T07:31:04.591Z,97941.72
2018-12-06T07:36:17.769Z,97948.28
2018-12-06T07:41:28.932Z,97953.23
2018-12-06T07:46:42.838Z,97948.84
2018-12-06T07:51:54.807Z,97946.71
2018-12-06T07:57:07.616Z,97933.72
2018-12-06T08:02:18.765Z,97933.34
2018-12-06T08:07:31.760Z,97937.86
2018-12-06T08:12:43.250Z,97945.73
2018-12-06T08:17:55.911Z,97952.11
2018-12-06T08:23:07.773Z,97951.95
2018-12-06T08:28:21.071Z,97966.98
2018-12-06T08:33:32.635Z,97964.44
2018-12-06T08:38:46.389Z,97962.93
2018-12-06T08:43:57.843Z,97948.44
2018-12-06T08:49:10.671Z,97947.52
2018-12-06T08:54:22.758Z,97941.73
2018-12-06T08:56:53.328Z,97951.44
2018-12-06T09:02:04.825Z,97956.69
2018-12-06T09:07:17.812Z,97970.94
2018-12-06T09:12:29.892Z,97977.56
2018-12-06T09:17:42.723Z,97980.39
2018-12-06T09:22:54.756Z,97983.17
2018-12-06T09:28:07.675Z,97989.93
2018-12-06T09:33:19.426Z,97989.05
2018-12-06T09:38:32.375Z,97990.77
2018-12-06T09:43:43.779Z,97994.11
2018-12-06T09:48:56.770Z,97994.58
2018-12-06T09:54:08.631Z,97980.50
2018-12-06T09:56:38.614Z,97981.10
2018-12-06T10:01:50.651Z,97991.30
2018-12-06T10:04:20.902Z,97992.58
2018-12-06T10:09:33.894Z,97981.01
2018-12-06T10:14:46.398Z,97984.20
2018-12-06T10:20:12.622Z,97969.61
2018-12-06T10:25:24.498Z,97969.72
2018-12-06T10:30:37.525Z,97970.52
2018-12-06T10:35:49.331Z,97956.89
2018-12-06T10:41:00.683Z,97935.59
2018-12-06T10:46:13.694Z,97945.91
2018-12-06T10:51:44.495Z,97943.17
2018-12-06T10:56:57.406Z,97946.69
2018-12-06T11:03:14.715Z,97941.80
2018-12-06T11:08:27.815Z,97953.01
2018-12-06T11:13:39.638Z,97930.84
2018-12-06T11:19:07.657Z,97946.08
2018-12-06T11:24:18.534Z,97943.52
2018-12-06T11:29:31.697Z,97920.69
2018-12-06T11:34:43.050Z,97905.39
2018-12-06T11:39:55.737Z,97898.33
2018-12-06T11:45:08.787Z,97895.40
2018-12-06T11:50:22.036Z,97879.12
2018-12-06T11:55:34.605Z,97894.50
2018-12-06T12:00:46.757Z,97897.27
2018-12-06T12:03:17.912Z,97889.89
2018-12-06T12:05:49.378Z,97902.31
2018-12-06T12:11:02.762Z,97913.20
2018-12-06T12:16:16.735Z,97908.45
2018-12-06T12:21:27.371Z,97903.38
2018-12-06T12:23:57.582Z,97900.92
2018-12-06T12:29:10.683Z,97898.77
2018-12-06T12:34:22.679Z,97888.05
2018-12-06T12:39:35.786Z,97888.48
2018-12-06T12:44:49.451Z,97879.58
2018-12-06T12:50:01.947Z,97874.99
2018-12-06T12:55:13.671Z,97877.73
2018-12-06T13:00:24.961Z,97874.81
2018-12-06T13:05:35.802Z,97878.66
2018-12-06T13:10:47.738Z,97886.21
2018-12-06T13:15:59.319Z,97879.30
2018-12-06T13:21:10.924Z,97892.95
2018-12-06T13:26:24.631Z,97889.72
2018-12-06T13:31:34.730Z,97895.27
2018-12-06T13:36:48.517Z,97895.85
2018-12-06T13:42:01.786Z,97889.09
2018-12-06T13:44:31.959Z,97890.02
2018-12-06T13:49:44.680Z,97894.03
2018-12-06T13:54:55.719Z,97899.39
2018-12-06T14:00:09.085Z,97899.55
2018-12-06T14:05:20.769Z,97911.22
2018-12-06T14:10:34.663Z,97904.15
2018-12-06T14:15:48.030Z,97901.70
2018-12-06T14:21:00.035Z,97887.89
2018-12-06T14:26:13.624Z,97893.27
2018-12-06T14:31:25.680Z,97893.09
2018-12-06T14:33:56.443Z,97907.07
2018-12-06T14:36:26.671Z,97909.70
2018-12-06T14:41:38.493Z,97923.19
2018-12-06T14:46:51.813Z,97917.38
2018-12-06T14:52:03.364Z,97920.59
2018-12-06T14:57:16.720Z,97931.80
2018-12-06T15:02:28.038Z,97938.25
2018-12-06T15:07:41.341Z,97944.08
2018-12-06T15:12:53.696Z,97954.20
2018-12-06T15:18:05.943Z,97960.94
2018-12-06T15:23:17.663Z,97971.67
2018-12-06T15:28:30.786Z,97976.55
2018-12-06T15:33:42.765Z,97998.80
2018-12-06T15:38:55.775Z,97982.34
2018-12-06T15:44:06.884Z,97977.13
2018-12-06T15:49:19.778Z,97991.22
2018-12-06T15:54:31.720Z,97989.83
2018-12-06T15:59:44.630Z,97981.98
2018-12-06T16:04:56.623Z,97986.23
2018-12-06T16:10:12.436Z,97987.16
2018-12-06T16:15:24.582Z,97995.70
2018-12-06T16:20:38.036Z,98002.59
2018-12-06T16:25:55.683Z,98002.00
2018-12-06T16:31:18.379Z,97995.27
2018-12-06T16:36:35.887Z,98000.81
2018-12-06T16:41:52.025Z,98006.47
2018-12-06T16:47:19.218Z,98000.87
2018-12-06T16:51:20.780Z,97999.56
2018-12-06T16:56:33.731Z,98004.63
2018-12-06T17:01:45.621Z,98006.67
2018-12-06T17:06:58.665Z,98015.70
2018-12-06T17:12:10.708Z,98008.24
2018-12-06T17:17:39.026Z,98010.38
2018-12-06T17:22:54.683Z,98009.11
2018-12-06T17:25:24.579Z,98010.60
2018-12-06T17:30:38.473Z,98016.89
2018-12-06T17:35:55.380Z,98013.75
2018-12-06T17:41:07.163Z,98012.67
2018-12-06T17:46:20.037Z,98020.18
2018-12-06T17:51:31.936Z,98000.83
2018-12-06T17:56:59.274Z,97997.72
2018-12-06T18:02:11.244Z,98000.19
2018-12-06T18:07:23.046Z,97993.72
2018-12-06T18:12:35.422Z,98006.61
2018-12-06T18:17:49.487Z,97990.11
2018-12-06T18:25:42.904Z,97991.97
2018-12-06T18:30:54.226Z,98006.22
2018-12-06T18:36:06.779Z,98008.09
2018-12-06T18:41:18.044Z,98010.42
2018-12-06T18:46:32.245Z,98002.48
2018-12-06T18:51:44.655Z,98003.02
2018-12-06T18:56:57.705Z,98003.14
2018-12-06T19:02:09.372Z,97999.17
2018-12-06T19:07:22.711Z,97989.50
2018-12-06T19:12:33.720Z,97994.59
2018-12-06T19:17:46.695Z,97987.86
2018-12-06T19:22:58.681Z,97978.20
2018-12-06T19:28:10.336Z,97967.02
2018-12-06T19:33:21.736Z,97973.77
2018-12-06T19:38:34.001Z,97978.25
2018-12-06T19:43:45.767Z,97965.66
2018-12-06T19:48:58.758Z,97955.55
2018-12-06T19:54:11.771Z,97949.73
2018-12-06T19:59:24.391Z,97942.98
2018-12-06T20:04:35.669Z,97938.39
2018-12-06T20:09:48.823Z,97943.63
2018-12-06T20:14:59.748Z,97959.43
2018-12-06T20:20:13.430Z,97965.11
2018-12-06T20:25:26.563Z,97950.52
2018-12-06T20:30:39.827Z,97956.22
2018-12-06T20:35:53.565Z,97940.40
2018-12-06T20:41:06.039Z,97937.47
2018-12-06T20:46:21.086Z,97932.41
2018-12-06T20:51:33.461Z,97926.56
2018-12-06T20:56:47.049Z,97920.90
2018-12-06T21:01:58.700Z,97930.73
2018-12-06T21:07:11.947Z,97906.90
2018-12-06T21:12:24.038Z,97911.81
2018-12-06T21:17:37.663Z,97912.93
2018-12-06T21:22:49.775Z,97905.70
2018-12-06T21:28:04.330Z,97912.78
2018-12-06T21:42:21.902Z,97904.16
2018-12-06T21:47:34.920Z,97907.66
2018-12-06T21:52:47.787Z,97916.09
2018-12-06T21:55:17.700Z,97906.89
2018-12-06T22:00:29.375Z,97911.64
2018-12-06T22:05:41.246Z,97914.55
2018-12-06T22:10:51.994Z,97907.95
2018-12-06T22:16:05.243Z,97908.57
2018-12-06T22:21:17.268Z,97902.42
2018-12-06T22:26:29.672Z,97901.83
2018-12-06T22:31:41.738Z,97892.72
2018-12-06T22:36:54.463Z,97875.67
2018-12-06T22:42:05.689Z,97873.35
2018-12-06T22:47:20.520Z,97877.98
2018-12-06T22:52:32.385Z,97876.39
2018-12-06T22:57:45.666Z,97875.16
2018-12-06T23:03:03.674Z,97883.75
2018-12-06T23:08:17.370Z,97874.67
2018-12-06T23:13:30.394Z,97857.43
2018-12-06T23:18:43.637Z,97863.76
2018-12-06T23:23:54.757Z,97857.89
2018-12-06T23:29:07.806Z,97856.38
2018-12-06T23:34:19.644Z,97838.83
2018-12-06T23:39:32.679Z,97840.33
2018-12-06T23:44:44.687Z,97824.31
2018-12-06T23:49:57.517Z,97832.80
2018-12-06T23:55:09.655Z,97816.19
